Terminal Aerodrome Forecast
Issued by NWS

Home | Current Version | Previous Version | Text Only | Print | Product List | Glossary On
Versions: 1 2 3 4 5 6 7 8 9 10 11 12 13 14 15 16 17 18
004
FTUS43 KAPX 300533
TAFTVC
TAF
KTVC 300533Z 3006/0106 04008KT P6SM -RA OVC090
     FM300800 06010G19KT P6SM -RA OVC040
     FM300900 07011G20KT P6SM -RA OVC025
     FM301100 07011G21KT P6SM -RA OVC015
     FM302300 08011G20KT 2SM RA BR OVC015=

USA.gov is the U.S. government's official web portal to all federal, state and local government web resources and services.